Time;durP1;ratioP1;P1;durP2;ratioP2;P2;SDS_P1;SDS_P2;PMS_P1;PMS_P2;Temp;Humidity;BMP_temperature;BMP_pressure;BME280_temperature;BME280_humidity;BME280_pressure;Samples;Min_cycle;Max_cycle;Signal;HPM_P1;HPM_P2
2022/10/22 00:00:23;;;;;;;16.63;2.80;;;15.20;81.30;;;;;;5112036;28;20036;-74
2022/10/22 00:02:48;;;;;;;5.38;2.80;;;15.10;81.50;;;;;;5094494;28;20020;-74
2022/10/22 00:05:15;;;;;;;6.22;2.72;;;15.00;81.40;;;;;;5094428;28;20096;-74
2022/10/22 00:07:40;;;;;;;3.45;2.53;;;14.80;82.50;;;;;;5095525;28;20051;-74
2022/10/22 00:10:07;;;;;;;3.22;2.33;;;14.80;81.80;;;;;;5098407;28;20032;-74
2022/10/22 00:12:33;;;;;;;5.75;2.15;;;14.80;81.40;;;;;;5115932;28;20478;-74
2022/10/22 00:14:59;;;;;;;5.93;2.38;;;14.60;81.10;;;;;;5115692;28;20024;-74
2022/10/22 00:17:24;;;;;;;2.90;2.08;;;14.60;81.50;;;;;;5115577;28;20024;-74
2022/10/22 00:19:50;;;;;;;3.53;1.95;;;14.50;82.00;;;;;;5115690;28;20040;-74
2022/10/22 00:22:16;;;;;;;3.08;2.15;;;14.50;82.20;;;;;;5115753;28;20024;-74
2022/10/22 00:24:41;;;;;;;2.65;1.85;;;14.40;82.40;;;;;;5115868;28;20032;-74
2022/10/22 00:27:09;;;;;;;5.22;2.28;;;14.40;82.70;;;;;;5097909;28;20087;-74
2022/10/22 00:29:34;;;;;;;7.22;2.10;;;14.30;82.80;;;;;;5097722;28;20029;-74
2022/10/22 00:32:00;;;;;;;3.58;2.30;;;14.40;83.00;;;;;;5080974;28;20578;-74
2022/10/22 00:34:27;;;;;;;4.28;2.72;;;14.40;82.90;;;;;;5097354;28;20024;-74
2022/10/22 00:36:53;;;;;;;5.63;3.03;;;14.40;82.80;;;;;;5115295;28;20460;-74
2022/10/22 00:39:20;;;;;;;7.28;3.50;;;14.50;83.20;;;;;;5097295;28;20024;-74
2022/10/22 00:41:47;;;;;;;5.35;3.50;;;14.50;83.80;;;;;;5115310;28;20027;-74
2022/10/22 00:44:52;;;;;;;7.65;3.58;;;14.50;84.40;;;;;;5097468;28;20024;-74
2022/10/22 00:47:18;;;;;;;7.80;3.70;;;14.50;84.80;;;;;;5115527;28;20024;-74
2022/10/22 00:49:45;;;;;;;7.85;3.67;;;14.50;84.80;;;;;;5114999;28;20024;-74
2022/10/22 00:52:12;;;;;;;7.80;3.35;;;14.60;85.60;;;;;;5115020;28;20023;-74
2022/10/22 00:54:38;;;;;;;5.45;3.47;;;14.60;84.50;;;;;;5097287;28;20032;-74
2022/10/22 00:57:04;;;;;;;7.60;4.10;;;14.60;84.70;;;;;;5115476;28;20031;-74
2022/10/22 00:59:31;;;;;;;5.72;3.63;;;14.70;84.60;;;;;;5115064;28;20020;-74
2022/10/22 01:01:57;;;;;;;5.55;3.80;;;14.70;84.90;;;;;;5097702;28;20036;-74
2022/10/22 01:04:23;;;;;;;6.57;3.72;;;14.70;84.90;;;;;;5080742;28;20119;-74
2022/10/22 01:06:49;;;;;;;6.60;3.80;;;14.70;84.90;;;;;;5114596;28;20091;-74
2022/10/22 01:09:18;;;;;;;6.95;3.83;;;14.70;84.70;;;;;;5097115;28;20114;-74
2022/10/22 01:12:02;;;;;;;6.13;3.58;;;14.70;84.70;;;;;;5114533;28;20023;-74
2022/10/22 01:14:50;;;;;;;6.75;3.97;;;14.70;84.60;;;;;;5114797;28;20048;-74
2022/10/22 01:17:30;;;;;;;5.40;3.60;;;14.70;84.50;;;;;;5114775;28;20042;-74
2022/10/22 01:20:09;;;;;;;5.20;3.50;;;14.70;84.50;;;;;;5113593;28;20489;-74
2022/10/22 01:22:42;;;;;;;5.05;3.33;;;14.70;84.70;;;;;;5114774;28;20035;-74
2022/10/22 01:25:35;;;;;;;5.85;3.47;;;14.70;84.90;;;;;;5115068;28;20026;-74
2022/10/22 01:28:16;;;;;;;5.38;3.40;;;14.70;84.70;;;;;;5114721;28;20031;-74
2022/10/22 01:30:43;;;;;;;5.15;3.45;;;14.70;84.40;;;;;;5114258;28;20024;-74
2022/10/22 01:33:12;;;;;;;7.75;3.42;;;14.70;84.40;;;;;;5114356;28;20027;-74
2022/10/22 01:35:41;;;;;;;9.20;3.65;;;14.60;84.40;;;;;;5114077;28;20028;-74
2022/10/22 01:38:12;;;;;;;8.63;3.33;;;14.60;84.40;;;;;;5114372;28;20020;-74
2022/10/22 01:40:39;;;;;;;5.73;3.43;;;14.60;84.30;;;;;;5114331;28;20054;-74
2022/10/22 01:43:07;;;;;;;4.63;3.00;;;14.60;84.70;;;;;;5096613;28;20055;-74
2022/10/22 01:45:56;;;;;;;5.93;3.60;;;14.60;85.40;;;;;;5113498;28;20035;-74
2022/10/22 01:48:34;;;;;;;6.18;3.38;;;14.50;84.70;;;;;;5112611;28;20047;-74
2022/10/22 01:51:10;;;;;;;5.80;3.00;;;14.50;84.70;;;;;;5113111;28;20024;-74
2022/10/22 01:53:53;;;;;;;6.03;3.15;;;14.60;84.80;;;;;;5112404;28;20058;-74
2022/10/22 01:56:21;;;;;;;7.15;3.60;;;14.50;84.70;;;;;;5095306;28;20028;-74
2022/10/22 01:59:23;;;;;;;5.18;3.42;;;14.50;84.70;;;;;;5095162;28;20494;-74
2022/10/22 02:02:04;;;;;;;9.50;3.58;;;14.50;84.80;;;;;;5090575;28;20462;-74
2022/10/22 02:04:54;;;;;;;6.05;2.92;;;14.50;84.80;;;;;;5112453;28;20031;-74
2022/10/22 02:07:24;;;;;;;7.03;3.33;;;14.50;84.80;;;;;;5112192;28;20047;-73
2022/10/22 02:09:52;;;;;;;6.20;3.72;;;14.50;84.80;;;;;;5112516;28;20026;-74
2022/10/22 02:12:20;;;;;;;5.90;3.10;;;14.40;84.70;;;;;;5112511;28;20020;-74
2022/10/22 02:14:47;;;;;;;11.05;3.50;;;14.40;84.50;;;;;;5094460;28;20047;-74
2022/10/22 02:17:17;;;;;;;7.28;3.65;;;14.40;84.40;;;;;;5113068;28;20020;-74
2022/10/22 02:20:31;;;;;;;10.27;3.50;;;14.40;84.70;;;;;;5113498;28;20024;-74
2022/10/22 02:22:59;;;;;;;7.72;3.60;;;14.40;84.70;;;;;;5050209;28;20047;-74
2022/10/22 02:25:29;;;;;;;5.88;3.38;;;14.40;84.80;;;;;;5049626;28;20033;-74
2022/10/22 02:28:03;;;;;;;5.13;3.50;;;14.40;85.10;;;;;;5069120;28;20028;-74
2022/10/22 02:30:32;;;;;;;5.90;3.05;;;14.40;85.10;;;;;;5093545;28;20095;-74
2022/10/22 02:33:18;;;;;;;7.00;3.63;;;14.50;85.10;;;;;;5094645;28;20029;-74
2022/10/22 02:35:44;;;;;;;7.07;3.78;;;14.50;85.00;;;;;;5112654;28;20406;-74
2022/10/22 02:38:12;;;;;;;6.13;3.40;;;14.50;85.00;;;;;;5113001;28;20048;-74
2022/10/22 02:40:38;;;;;;;6.78;3.70;;;14.40;84.90;;;;;;5111901;28;20046;-74
2022/10/22 02:43:05;;;;;;;6.03;3.78;;;14.40;85.20;;;;;;5111623;28;20391;-74
2022/10/22 02:45:31;;;;;;;6.50;4.18;;;14.30;85.00;;;;;;5094026;28;20024;-74
2022/10/22 02:47:57;;;;;;;7.38;3.47;;;14.30;85.10;;;;;;5111546;28;20023;-74
2022/10/22 02:50:23;;;;;;;6.13;3.55;;;14.30;85.00;;;;;;5112292;28;20087;-74
2022/10/22 02:52:48;;;;;;;7.68;3.83;;;14.30;85.00;;;;;;5077693;28;20028;-74
2022/10/22 02:55:14;;;;;;;6.95;4.00;;;14.30;85.00;;;;;;5113294;28;20031;-74
2022/10/22 02:57:39;;;;;;;10.35;3.45;;;14.30;85.00;;;;;;5093901;28;20028;-74
2022/10/22 03:00:07;;;;;;;5.78;3.63;;;14.20;85.20;;;;;;5111091;28;20033;-74
2022/10/22 03:02:33;;;;;;;5.35;3.40;;;14.20;85.30;;;;;;5093926;28;20404;-74
2022/10/22 03:04:59;;;;;;;6.28;3.28;;;14.20;85.50;;;;;;5111754;28;20107;-74
2022/10/22 03:07:24;;;;;;;7.28;3.63;;;14.20;85.50;;;;;;5111532;28;20066;-74
2022/10/22 03:09:50;;;;;;;10.55;4.18;;;14.20;85.40;;;;;;5094509;28;20028;-74
2022/10/22 03:12:16;;;;;;;7.97;3.75;;;14.20;85.50;;;;;;5112872;28;20032;-74
2022/10/22 03:14:41;;;;;;;7.22;3.42;;;14.30;85.60;;;;;;5111444;28;20032;-74
2022/10/22 03:17:07;;;;;;;5.15;3.15;;;14.30;85.30;;;;;;5093598;28;20033;-74
2022/10/22 03:19:32;;;;;;;7.38;3.60;;;14.30;85.00;;;;;;5093225;28;20046;-74
2022/10/22 03:22:04;;;;;;;5.97;3.45;;;14.30;84.00;;;;;;5094083;28;20447;-74
2022/10/22 03:24:40;;;;;;;7.32;3.67;;;14.20;84.70;;;;;;5111725;28;20021;-74
2022/10/22 03:27:05;;;;;;;8.00;3.65;;;14.30;85.20;;;;;;5112098;28;20048;-74
2022/10/22 03:29:35;;;;;;;7.10;3.67;;;14.20;85.30;;;;;;5112356;28;20048;-74
2022/10/22 03:32:01;;;;;;;6.13;3.67;;;14.30;85.40;;;;;;5111528;28;20042;-74
2022/10/22 03:34:26;;;;;;;6.22;3.60;;;14.20;85.30;;;;;;5093574;28;20028;-74
2022/10/22 03:36:53;;;;;;;8.25;3.13;;;14.20;85.50;;;;;;5111060;28;20048;-74
2022/10/22 03:39:19;;;;;;;4.95;3.42;;;14.10;85.40;;;;;;5111640;28;20078;-74
2022/10/22 03:41:47;;;;;;;7.53;3.72;;;14.10;85.60;;;;;;5111837;28;20075;-74
2022/10/22 03:44:15;;;;;;;7.30;2.97;;;14.10;85.60;;;;;;5115233;28;20482;-74
2022/10/22 03:46:40;;;;;;;6.85;3.65;;;14.10;85.70;;;;;;5115649;28;20046;-74
2022/10/22 03:49:06;;;;;;;7.38;3.45;;;14.00;85.60;;;;;;5097978;28;20028;-74
2022/10/22 03:51:32;;;;;;;5.88;3.88;;;14.00;85.40;;;;;;5114632;28;20047;-74
2022/10/22 03:53:57;;;;;;;4.70;3.10;;;14.00;85.40;;;;;;5097086;28;20052;-74
2022/10/22 03:56:23;;;;;;;6.18;3.30;;;13.90;85.00;;;;;;5096993;28;20032;-74
2022/10/22 03:58:49;;;;;;;4.63;3.47;;;13.90;85.10;;;;;;5115499;28;20028;-74
2022/10/22 04:01:14;;;;;;;7.65;3.20;;;13.80;85.40;;;;;;5115317;28;20024;-74
2022/10/22 04:03:40;;;;;;;10.95;4.00;;;13.90;85.90;;;;;;5115554;28;20035;-74
2022/10/22 04:06:11;;;;;;;8.23;3.45;;;13.90;85.80;;;;;;5115505;28;20048;-74
2022/10/22 04:08:39;;;;;;;14.63;4.03;;;13.90;86.20;;;;;;5114549;28;20110;-74
2022/10/22 04:11:05;;;;;;;6.65;3.28;;;13.90;86.40;;;;;;5114866;28;20020;-74
2022/10/22 04:13:31;;;;;;;5.25;3.33;;;14.00;86.50;;;;;;5114236;28;20058;-74
2022/10/22 04:16:17;;;;;;;7.78;3.30;;;14.00;86.80;;;;;;5080164;28;20151;-74
2022/10/22 04:18:44;;;;;;;15.07;3.50;;;14.00;87.30;;;;;;5115273;28;20020;-74
2022/10/22 04:21:12;;;;;;;5.15;3.00;;;14.10;88.30;;;;;;5114907;28;20057;-74
2022/10/22 04:23:38;;;;;;;8.15;3.75;;;14.00;89.50;;;;;;5115435;28;20020;-74
2022/10/22 04:26:05;;;;;;;11.68;3.53;;;14.10;88.70;;;;;;5096344;28;20035;-74
2022/10/22 04:28:32;;;;;;;12.18;3.70;;;14.10;89.80;;;;;;5114463;28;20046;-74
2022/10/22 04:30:57;;;;;;;9.40;3.47;;;14.10;89.80;;;;;;5114131;28;20035;-74
2022/10/22 04:33:23;;;;;;;3.95;2.80;;;14.20;90.10;;;;;;5096252;28;20095;-74
2022/10/22 04:35:48;;;;;;;7.57;3.60;;;14.20;90.00;;;;;;5096973;28;20033;-74
2022/10/22 04:38:14;;;;;;;10.68;3.60;;;14.20;90.20;;;;;;5097026;28;20108;-74
2022/10/22 04:40:40;;;;;;;7.25;3.38;;;14.20;90.60;;;;;;5115191;28;20031;-74
2022/10/22 04:43:06;;;;;;;5.63;3.60;;;14.20;90.60;;;;;;5096541;28;20103;-74
2022/10/22 04:45:33;;;;;;;8.50;3.67;;;14.20;90.50;;;;;;5095769;28;20032;-74
2022/10/22 04:47:58;;;;;;;6.20;3.20;;;14.20;90.30;;;;;;5114372;28;20049;-74
2022/10/22 04:50:24;;;;;;;7.93;3.40;;;14.20;90.20;;;;;;5113768;28;20087;-74
2022/10/22 04:52:49;;;;;;;7.88;3.67;;;14.20;90.20;;;;;;5095984;28;20028;-74
2022/10/22 04:55:15;;;;;;;7.68;3.25;;;14.30;90.30;;;;;;5114335;28;20035;-74
2022/10/22 04:57:41;;;;;;;8.73;3.70;;;14.20;90.20;;;;;;5097437;28;20032;-74
2022/10/22 05:00:07;;;;;;;8.45;3.38;;;14.20;90.10;;;;;;5113337;28;20024;-74
2022/10/22 05:02:33;;;;;;;8.73;3.35;;;14.20;90.20;;;;;;5113708;28;20075;-74
2022/10/22 05:04:58;;;;;;;6.63;3.92;;;14.20;90.30;;;;;;5113458;28;20036;-74
2022/10/22 05:07:24;;;;;;;8.38;3.42;;;14.20;90.30;;;;;;5113728;28;20040;-74
2022/10/22 05:09:50;;;;;;;6.28;3.50;;;14.20;90.20;;;;;;5095969;28;20024;-74
2022/10/22 05:12:15;;;;;;;7.60;4.03;;;14.10;90.30;;;;;;5114344;28;20054;-74
2022/10/22 05:14:41;;;;;;;9.13;3.58;;;14.10;90.30;;;;;;5114338;28;20050;-74
2022/10/22 05:17:07;;;;;;;7.93;3.40;;;14.10;90.50;;;;;;5095830;28;20055;-74
2022/10/22 05:19:33;;;;;;;7.10;3.40;;;14.20;90.50;;;;;;5095381;28;20032;-74
2022/10/22 05:22:00;;;;;;;6.85;3.45;;;14.20;90.50;;;;;;5094941;28;20044;-74
2022/10/22 05:24:28;;;;;;;9.43;3.58;;;14.10;90.50;;;;;;5095480;28;20027;-74
2022/10/22 05:26:55;;;;;;;7.10;3.40;;;14.10;90.70;;;;;;5113583;28;20020;-74
2022/10/22 05:29:22;;;;;;;10.95;4.25;;;14.10;90.80;;;;;;5113780;28;20012;-74
2022/10/22 05:31:48;;;;;;;7.55;3.15;;;14.10;90.80;;;;;;5079040;28;20050;-74
2022/10/22 05:34:14;;;;;;;9.90;3.10;;;14.10;90.80;;;;;;5113762;28;20036;-74
2022/10/22 05:36:40;;;;;;;7.35;3.55;;;14.10;91.00;;;;;;5112651;28;20057;-74
2022/10/22 05:39:06;;;;;;;8.43;3.20;;;14.10;91.30;;;;;;5095362;28;20043;-75
2022/10/22 05:41:32;;;;;;;7.00;3.33;;;14.00;91.60;;;;;;5112448;28;20084;-74
2022/10/22 05:43:59;;;;;;;5.95;3.35;;;14.10;91.40;;;;;;5113496;28;20016;-74
2022/10/22 05:46:31;;;;;;;6.85;3.08;;;14.10;91.40;;;;;;5095623;28;20103;-74
2022/10/22 05:49:00;;;;;;;10.70;4.10;;;14.20;91.50;;;;;;5113297;28;20023;-75
2022/10/22 05:51:28;;;;;;;6.10;2.90;;;14.20;91.50;;;;;;5113813;28;20024;-74
2022/10/22 05:53:59;;;;;;;6.70;3.33;;;14.20;91.60;;;;;;5094209;28;20107;-74
2022/10/22 05:56:26;;;;;;;7.63;3.38;;;14.20;91.80;;;;;;5112797;28;20103;-74
2022/10/22 05:58:52;;;;;;;5.05;2.90;;;14.20;91.70;;;;;;5112326;28;20032;-74
2022/10/22 06:01:21;;;;;;;8.48;2.92;;;14.30;91.90;;;;;;5094840;28;20032;-73
2022/10/22 06:03:47;;;;;;;11.50;3.38;;;14.30;91.80;;;;;;5112902;28;20020;-73
2022/10/22 06:06:18;;;;;;;6.57;3.15;;;14.40;91.80;;;;;;5112264;28;20044;-74
2022/10/22 06:08:46;;;;;;;8.55;3.05;;;14.40;91.80;;;;;;5113465;28;20024;-74
2022/10/22 06:11:12;;;;;;;6.80;2.80;;;14.30;91.80;;;;;;5112326;28;20176;-74
2022/10/22 06:13:37;;;;;;;6.22;2.90;;;14.40;91.80;;;;;;5094362;28;20032;-74
2022/10/22 06:16:03;;;;;;;8.52;3.00;;;14.40;91.70;;;;;;5112226;28;20042;-74
2022/10/22 06:18:29;;;;;;;6.47;3.05;;;14.40;91.70;;;;;;5077630;28;20095;-74
2022/10/22 06:20:54;;;;;;;8.93;3.80;;;14.40;91.70;;;;;;5094810;28;20032;-74
2022/10/22 06:23:20;;;;;;;8.73;3.53;;;14.40;91.70;;;;;;5112756;28;20053;-74
2022/10/22 06:25:55;;;;;;;7.13;3.47;;;14.40;91.60;;;;;;5113552;28;20035;-74
2022/10/22 06:28:21;;;;;;;7.05;3.22;;;14.40;91.40;;;;;;5112253;28;20022;-74
2022/10/22 06:30:47;;;;;;;5.60;3.00;;;14.40;91.40;;;;;;5093772;28;20063;-74
2022/10/22 06:33:12;;;;;;;12.48;3.45;;;14.40;91.40;;;;;;5094658;28;20032;-73
2022/10/22 06:35:38;;;;;;;5.93;3.00;;;14.40;91.40;;;;;;5111890;28;20028;-74
2022/10/22 06:38:05;;;;;;;5.47;3.15;;;14.40;91.20;;;;;;5077538;28;20021;-74
2022/10/22 06:40:32;;;;;;;6.97;3.15;;;14.40;91.20;;;;;;5112630;28;20122;-74
2022/10/22 06:42:59;;;;;;;6.78;3.22;;;14.40;91.20;;;;;;5113622;28;20518;-74
2022/10/22 06:45:25;;;;;;;9.93;3.47;;;14.40;91.20;;;;;;5111681;28;20031;-74
2022/10/22 06:47:50;;;;;;;5.50;2.90;;;14.40;91.10;;;;;;5094898;28;20528;-74
2022/10/22 06:50:16;;;;;;;6.10;2.95;;;14.40;91.10;;;;;;5112258;28;20023;-74
2022/10/22 06:52:42;;;;;;;7.55;2.92;;;14.40;91.20;;;;;;5111410;28;20401;-74
2022/10/22 06:55:08;;;;;;;8.25;3.30;;;14.40;91.20;;;;;;5112093;28;20087;-74
2022/10/22 06:57:33;;;;;;;8.02;3.17;;;14.40;91.20;;;;;;5113533;28;20024;-74
2022/10/22 06:59:59;;;;;;;7.45;3.35;;;14.40;91.10;;;;;;5095638;28;20028;-74
2022/10/22 07:02:25;;;;;;;6.40;3.13;;;14.50;91.30;;;;;;5077051;28;20047;-74
2022/10/22 07:04:50;;;;;;;6.30;3.60;;;14.50;91.40;;;;;;5094129;28;20024;-75
2022/10/22 07:07:16;;;;;;;7.90;3.28;;;14.50;91.50;;;;;;5110958;28;20051;-75
2022/10/22 07:09:44;;;;;;;9.30;3.15;;;14.50;91.50;;;;;;5111917;28;20033;-74
2022/10/22 07:12:11;;;;;;;6.13;3.60;;;14.50;91.50;;;;;;5112735;28;20020;-74
2022/10/22 07:14:37;;;;;;;6.53;3.30;;;14.50;91.40;;;;;;5093489;28;20024;-75
2022/10/22 07:17:02;;;;;;;6.45;3.20;;;14.60;91.30;;;;;;5112989;28;20024;-74
2022/10/22 07:19:28;;;;;;;9.27;3.10;;;14.50;91.40;;;;;;5097887;28;20028;-74
2022/10/22 07:21:54;;;;;;;10.20;3.00;;;14.60;91.30;;;;;;5080902;28;20037;-74
2022/10/22 07:24:19;;;;;;;7.72;3.38;;;14.60;91.50;;;;;;5081091;28;20016;-74
2022/10/22 07:26:45;;;;;;;6.88;3.03;;;14.60;91.60;;;;;;5116277;28;20028;-75
2022/10/22 07:29:11;;;;;;;9.95;2.88;;;14.70;91.50;;;;;;5098639;28;20071;-75
2022/10/22 07:31:37;;;;;;;7.07;2.92;;;14.70;91.40;;;;;;5116238;28;20084;-74
2022/10/22 07:34:02;;;;;;;6.00;2.70;;;14.70;91.40;;;;;;5117058;28;20032;-75
2022/10/22 07:36:28;;;;;;;6.55;3.08;;;14.80;91.30;;;;;;5098649;28;20527;-74
2022/10/22 07:38:58;;;;;;;8.52;2.70;;;14.80;91.20;;;;;;5114953;28;20050;-74
2022/10/22 07:41:24;;;;;;;6.88;3.20;;;14.70;91.30;;;;;;5115129;28;20031;-74
2022/10/22 07:43:50;;;;;;;5.00;2.97;;;14.70;91.40;;;;;;5114899;28;20016;-74
2022/10/22 07:46:16;;;;;;;9.65;2.72;;;14.80;91.30;;;;;;5115333;28;20458;-74
2022/10/22 07:48:41;;;;;;;5.70;3.05;;;14.80;91.30;;;;;;5115717;28;20020;-74
2022/10/22 07:51:08;;;;;;;8.30;3.25;;;14.90;91.30;;;;;;5115658;28;20548;-74
2022/10/22 07:53:33;;;;;;;11.98;3.97;;;14.90;91.30;;;;;;5116234;28;20024;-74
2022/10/22 07:55:59;;;;;;;6.03;2.83;;;14.90;91.30;;;;;;5115020;28;20055;-74
2022/10/22 07:58:25;;;;;;;6.30;2.60;;;14.90;91.10;;;;;;5096633;28;20047;-74
2022/10/22 08:00:54;;;;;;;6.85;2.60;;;15.00;91.00;;;;;;5115198;28;20024;-74
2022/10/22 08:03:20;;;;;;;8.27;3.00;;;15.00;91.00;;;;;;5096705;28;20382;-74
2022/10/22 08:05:46;;;;;;;7.55;2.85;;;15.10;91.00;;;;;;5097033;28;20043;-74
2022/10/22 08:08:14;;;;;;;5.80;2.75;;;15.10;91.00;;;;;;5097355;28;20028;-75
2022/10/22 08:10:40;;;;;;;8.07;3.20;;;15.20;91.00;;;;;;5098490;28;20084;-74
2022/10/22 08:13:06;;;;;;;6.20;2.88;;;15.20;91.10;;;;;;5114521;28;20101;-75
2022/10/22 08:15:31;;;;;;;7.53;2.80;;;15.30;91.10;;;;;;5114348;28;20043;-74
2022/10/22 08:17:57;;;;;;;10.98;3.13;;;15.40;91.00;;;;;;5096682;28;20032;-74
2022/10/22 08:20:23;;;;;;;11.25;3.08;;;15.50;90.90;;;;;;5114556;28;20036;-74
2022/10/22 08:22:50;;;;;;;9.23;3.00;;;15.60;90.80;;;;;;5114524;28;20032;-74
2022/10/22 08:25:17;;;;;;;8.98;2.83;;;15.70;90.70;;;;;;5115294;28;20463;-74
2022/10/22 08:27:43;;;;;;;8.18;2.65;;;15.80;90.60;;;;;;5115627;28;20510;-74
2022/10/22 08:30:09;;;;;;;7.13;2.60;;;15.80;90.30;;;;;;5113443;28;20028;-74
2022/10/22 08:32:35;;;;;;;10.15;2.45;;;15.90;90.30;;;;;;5114421;28;20393;-73
2022/10/22 08:35:00;;;;;;;6.25;2.38;;;15.90;90.10;;;;;;5113799;28;20055;-74
2022/10/22 08:37:26;;;;;;;4.30;2.35;;;16.10;90.10;;;;;;5114754;28;20504;-74
2022/10/22 08:39:52;;;;;;;6.78;2.20;;;16.20;89.30;;;;;;5096349;28;20032;-74
2022/10/22 08:42:49;;;;;;;7.22;2.22;;;16.20;89.00;;;;;;5096991;28;20088;-73
2022/10/22 08:45:26;;;;;;;8.32;2.13;;;16.30;88.60;;;;;;5115513;28;20040;-73
2022/10/22 08:48:25;;;;;;;7.40;2.35;;;16.40;88.70;;;;;;5113954;28;20090;-73
2022/10/22 08:50:55;;;;;;;5.20;2.30;;;16.50;87.00;;;;;;5113701;28;20028;-73
2022/10/22 08:53:29;;;;;;;4.90;2.00;;;16.50;87.80;;;;;;5114220;28;20024;-73
2022/10/22 08:55:56;;;;;;;6.95;1.92;;;16.70;87.90;;;;;;5095876;28;20020;-73
2022/10/22 08:58:30;;;;;;;4.35;2.33;;;16.80;87.30;;;;;;5096324;28;20054;-73
2022/10/22 09:01:01;;;;;;;7.65;2.20;;;16.70;86.40;;;;;;5114243;28;20032;-73
2022/10/22 09:03:34;;;;;;;7.05;2.10;;;16.70;86.80;;;;;;5114976;28;20024;-73
2022/10/22 09:06:13;;;;;;;5.82;2.20;;;16.70;85.90;;;;;;5095713;28;20038;-74
2022/10/22 09:08:41;;;;;;;4.88;1.70;;;16.70;86.40;;;;;;5095700;28;20016;-73
2022/10/22 09:11:22;;;;;;;6.05;1.70;;;16.60;86.20;;;;;;5113537;28;20099;-73
2022/10/22 09:13:48;;;;;;;7.15;1.80;;;16.50;85.60;;;;;;5113805;28;20027;-74
2022/10/22 09:16:23;;;;;;;10.15;1.90;;;16.50;86.10;;;;;;5095847;28;20040;-74
2022/10/22 09:19:15;;;;;;;5.25;1.52;;;16.50;86.20;;;;;;5113943;28;20030;-73
2022/10/22 09:21:50;;;;;;;4.85;1.35;;;16.40;86.10;;;;;;5114213;28;20096;-74
2022/10/22 09:24:31;;;;;;;8.65;1.67;;;16.50;86.40;;;;;;5112619;28;20031;-74
2022/10/22 09:26:57;;;;;;;3.35;1.45;;;16.50;86.80;;;;;;5095244;28;20044;-74
2022/10/22 09:29:29;;;;;;;5.53;1.65;;;16.50;86.60;;;;;;5094571;28;20030;-74
2022/10/22 09:31:55;;;;;;;9.93;1.83;;;16.50;86.90;;;;;;5113369;28;20031;-74
2022/10/22 09:34:21;;;;;;;8.48;1.85;;;16.50;86.20;;;;;;5095457;28;20040;-75
2022/10/22 09:36:55;;;;;;;6.45;1.77;;;16.50;86.20;;;;;;5113560;28;20054;-75
2022/10/22 09:39:24;;;;;;;4.45;1.73;;;16.50;86.50;;;;;;5095615;28;20028;-74
2022/10/22 09:41:50;;;;;;;9.57;1.73;;;16.50;86.40;;;;;;5111292;28;20069;-75
2022/10/22 09:44:17;;;;;;;7.72;2.20;;;16.50;86.30;;;;;;5113037;28;20024;-74
2022/10/22 09:46:44;;;;;;;7.32;1.85;;;16.50;86.80;;;;;;5112483;28;20028;-74
2022/10/22 09:49:14;;;;;;;9.13;2.03;;;16.50;86.50;;;;;;5113115;28;20051;-75
2022/10/22 09:51:51;;;;;;;7.03;1.98;;;16.50;86.70;;;;;;5113018;28;20038;-75
2022/10/22 09:54:23;;;;;;;7.28;1.80;;;16.50;86.70;;;;;;5113032;28;20027;-74
2022/10/22 09:57:21;;;;;;;12.40;2.05;;;16.40;86.50;;;;;;5095064;28;20031;-75
2022/10/22 09:59:52;;;;;;;7.03;2.10;;;16.40;86.40;;;;;;5100293;28;20044;-75
2022/10/22 10:02:40;;;;;;;9.93;2.33;;;16.50;86.40;;;;;;4637147;27;15057185;-90
2022/10/22 10:05:07;;;;;;;8.95;2.20;;;16.50;86.60;;;;;;5138190;27;20064;-90
2022/10/22 10:07:34;;;;;;;9.57;1.90;;;16.40;86.70;;;;;;5138330;27;20099;-93
2022/10/22 10:10:01;;;;;;;8.60;2.33;;;16.50;86.80;;;;;;5121528;27;20023;-90
2022/10/22 10:12:40;;;;;;;9.20;1.98;;;16.50;86.80;;;;;;5121897;27;20035;-90
2022/10/22 10:15:37;;;;;;;6.72;2.03;;;16.50;86.50;;;;;;5138093;27;20048;-91
2022/10/22 10:18:22;;;;;;;8.75;2.45;;;16.50;86.30;;;;;;5136918;27;20030;-90
2022/10/22 10:21:04;;;;;;;9.65;2.28;;;16.60;86.60;;;;;;5137859;27;20034;-90
2022/10/22 10:23:53;;;;;;;9.32;2.00;;;16.50;85.60;;;;;;5137255;27;20417;-90
2022/10/22 10:26:44;;;;;;;5.18;1.80;;;16.60;86.80;;;;;;5090726;27;20033;-90
2022/10/22 10:29:28;;;;;;;5.97;1.60;;;16.70;86.30;;;;;;5142916;22;20048;-85
2022/10/22 10:32:25;;;;;;;4.65;1.75;;;16.70;86.30;;;;;;5072958;28;20021;-91
2022/10/22 10:35:20;;;;;;;6.40;2.00;;;16.70;86.00;;;;;;5073529;28;20437;-90
2022/10/22 10:38:09;;;;;;;5.50;1.73;;;16.70;85.90;;;;;;5073352;28;20052;-90
2022/10/22 10:40:58;;;;;;;6.45;2.05;;;16.80;86.00;;;;;;5072029;28;20102;-90
2022/10/22 10:43:36;;;;;;;6.82;1.80;;;16.80;86.40;;;;;;5072916;28;20547;-91
2022/10/22 10:46:27;;;;;;;7.72;1.80;;;16.90;85.30;;;;;;5073082;28;20068;-90
2022/10/22 10:49:00;;;;;;;8.30;1.70;;;16.80;85.00;;;;;;5073615;28;20112;-90
2022/10/22 10:51:41;;;;;;;6.68;1.75;;;16.80;85.30;;;;;;5072481;28;20033;-90
2022/10/22 10:54:40;;;;;;;7.15;1.85;;;16.90;85.20;;;;;;5073338;28;20029;-90
2022/10/22 10:57:18;;;;;;;6.85;2.13;;;17.00;85.40;;;;;;5035490;28;20037;-90
2022/10/22 10:59:50;;;;;;;8.30;1.80;;;17.00;84.70;;;;;;5072227;28;20142;-90
2022/10/22 11:02:36;;;;;;;7.05;2.42;;;17.10;84.70;;;;;;5073813;28;20060;-91
2022/10/22 11:05:33;;;;;;;7.55;2.13;;;17.20;84.90;;;;;;5073469;28;20017;-90
2022/10/22 11:08:09;;;;;;;6.97;2.15;;;17.20;83.50;;;;;;5072163;28;20017;-90
2022/10/22 11:10:39;;;;;;;6.93;2.10;;;17.10;84.60;;;;;;5071787;28;20032;-90
2022/10/22 11:13:18;;;;;;;7.38;2.25;;;17.30;84.40;;;;;;5064360;28;20017;-90
2022/10/22 11:16:07;;;;;;;7.40;2.20;;;17.40;83.70;;;;;;5058926;28;20021;-90
2022/10/22 11:18:45;;;;;;;6.88;2.17;;;17.60;84.10;;;;;;5059152;28;20036;-90
2022/10/22 11:21:28;;;;;;;9.10;2.10;;;17.70;83.00;;;;;;5059230;28;20486;-90
2022/10/22 11:24:25;;;;;;;7.50;2.65;;;17.90;82.60;;;;;;5058770;28;20033;-89
2022/10/22 11:27:24;;;;;;;4.03;2.10;;;18.00;81.20;;;;;;5058210;28;20028;-90
2022/10/22 11:30:12;;;;;;;7.72;2.03;;;18.10;81.80;;;;;;5055900;28;20049;-90
2022/10/22 11:32:48;;;;;;;3.83;2.15;;;18.20;79.30;;;;;;5049359;28;20021;-91
2022/10/22 11:35:20;;;;;;;5.82;2.05;;;18.30;79.90;;;;;;5013228;28;20387;-86
2022/10/22 11:37:46;;;;;;;7.10;2.03;;;18.40;80.20;;;;;;5008978;28;20061;-86
2022/10/22 11:40:41;;;;;;;7.57;2.10;;;18.50;79.70;;;;;;5018060;28;20030;-87
2022/10/22 11:43:09;;;;;;;4.38;1.90;;;18.50;78.20;;;;;;4990387;28;20041;-86
2022/10/22 11:45:40;;;;;;;6.75;2.10;;;18.50;78.90;;;;;;4985072;28;20679;-86
2022/10/22 11:48:09;;;;;;;6.85;2.22;;;18.50;78.40;;;;;;5000142;28;20042;-92
2022/10/22 11:50:47;;;;;;;5.25;2.38;;;18.40;78.50;;;;;;5018376;28;20072;-91
2022/10/22 11:53:12;;;;;;;3.63;1.73;;;18.40;77.70;;;;;;5017790;28;20034;-92
2022/10/22 11:55:54;;;;;;;7.53;2.95;;;18.30;78.10;;;;;;5018529;28;20102;-92
2022/10/22 11:58:38;;;;;;;5.07;2.33;;;18.20;78.40;;;;;;5019230;28;20029;-92
2022/10/22 12:01:06;;;;;;;6.43;2.15;;;18.20;78.10;;;;;;5016618;28;20030;-86
2022/10/22 12:03:32;;;;;;;5.43;1.85;;;18.10;78.40;;;;;;5016161;28;20487;-86
2022/10/22 12:06:10;;;;;;;8.77;2.50;;;18.20;78.70;;;;;;5016605;28;20094;-87
2022/10/22 12:08:48;;;;;;;4.47;2.13;;;18.20;78.10;;;;;;5016255;28;20022;-87
2022/10/22 12:11:36;;;;;;;8.32;2.40;;;18.40;78.80;;;;;;5016771;28;20096;-86
2022/10/22 12:14:28;;;;;;;8.90;2.50;;;18.50;78.40;;;;;;5016220;28;20076;-86
2022/10/22 12:17:03;;;;;;;5.03;2.20;;;18.50;78.00;;;;;;4999385;28;20121;-86
2022/10/22 12:19:38;;;;;;;6.55;2.15;;;18.40;78.30;;;;;;5029283;28;20395;-86
2022/10/22 12:22:06;;;;;;;7.25;2.20;;;18.40;77.60;;;;;;5035122;28;20029;-86
2022/10/22 12:24:43;;;;;;;12.27;2.70;;;18.40;77.80;;;;;;5037354;28;20037;-88
2022/10/22 12:27:18;;;;;;;7.80;2.25;;;18.40;77.90;;;;;;5038018;28;20537;-86
2022/10/22 12:29:47;;;;;;;7.15;2.40;;;18.50;77.60;;;;;;5038720;28;20112;-86
2022/10/22 12:32:14;;;;;;;5.45;2.00;;;18.50;77.20;;;;;;5022733;28;20030;-93
2022/10/22 12:34:49;;;;;;;6.60;2.20;;;18.50;75.50;;;;;;5039926;28;20391;-92
2022/10/22 12:37:16;;;;;;;8.30;2.38;;;18.40;75.60;;;;;;5022458;28;20040;-91
2022/10/22 12:39:45;;;;;;;9.32;2.58;;;18.40;76.00;;;;;;5020306;28;20387;-87
2022/10/22 12:42:17;;;;;;;7.72;2.22;;;18.30;75.40;;;;;;5040118;28;20006;-87
2022/10/22 12:44:45;;;;;;;7.10;1.85;;;18.30;75.90;;;;;;5039472;28;20029;-88
2022/10/22 12:47:16;;;;;;;9.43;2.70;;;18.30;74.60;;;;;;5021846;28;20120;-87
2022/10/22 12:49:46;;;;;;;6.97;2.45;;;18.20;75.40;;;;;;5039442;28;20021;-87
2022/10/22 12:52:20;;;;;;;6.60;2.65;;;18.30;75.80;;;;;;5037309;28;20124;-86
2022/10/22 12:54:51;;;;;;;7.72;2.45;;;18.30;75.80;;;;;;5020540;28;20495;-85
2022/10/22 12:57:19;;;;;;;8.02;2.60;;;18.30;76.10;;;;;;5036678;28;20565;-84
2022/10/22 12:59:50;;;;;;;7.22;2.67;;;18.20;76.20;;;;;;5036240;28;20497;-85
2022/10/22 13:02:26;;;;;;;7.70;2.30;;;18.20;76.40;;;;;;5037403;28;20032;-87
2022/10/22 13:05:21;;;;;;;8.25;2.63;;;18.20;76.40;;;;;;5037777;28;20026;-87